sensor_id;sensor_type;location;lat;lon;timestamp;P1;durP1;ratioP1;P2;durP2;ratioP2
6269;SDS011;3168;51.684;6.954;2023-07-29T00:00:37;2.50;;;2.37;;
6269;SDS011;3168;51.684;6.954;2023-07-29T00:03:03;2.37;;;2.27;;
6269;SDS011;3168;51.684;6.954;2023-07-29T00:05:28;2.70;;;2.50;;
6269;SDS011;3168;51.684;6.954;2023-07-29T00:07:54;2.70;;;2.50;;
6269;SDS011;3168;51.684;6.954;2023-07-29T00:10:20;7.97;;;2.33;;
6269;SDS011;3168;51.684;6.954;2023-07-29T00:12:46;4.93;;;1.93;;
6269;SDS011;3168;51.684;6.954;2023-07-29T00:15:12;2.57;;;2.37;;
6269;SDS011;3168;51.684;6.954;2023-07-29T00:17:38;2.27;;;2.17;;
6269;SDS011;3168;51.684;6.954;2023-07-29T00:20:04;2.50;;;2.40;;
6269;SDS011;3168;51.684;6.954;2023-07-29T00:22:31;3.50;;;3.20;;
6269;SDS011;3168;51.684;6.954;2023-07-29T00:24:57;4.83;;;3.47;;
6269;SDS011;3168;51.684;6.954;2023-07-29T00:27:23;2.53;;;2.43;;
6269;SDS011;3168;51.684;6.954;2023-07-29T00:29:48;3.50;;;3.20;;
6269;SDS011;3168;51.684;6.954;2023-07-29T00:32:14;3.30;;;3.10;;
6269;SDS011;3168;51.684;6.954;2023-07-29T00:34:40;4.20;;;3.67;;
6269;SDS011;3168;51.684;6.954;2023-07-29T00:37:06;2.63;;;2.53;;
6269;SDS011;3168;51.684;6.954;2023-07-29T00:39:32;3.00;;;2.90;;
6269;SDS011;3168;51.684;6.954;2023-07-29T00:41:57;2.90;;;2.80;;
6269;SDS011;3168;51.684;6.954;2023-07-29T00:44:23;3.30;;;3.17;;
6269;SDS011;3168;51.684;6.954;2023-07-29T00:46:51;3.17;;;2.97;;
6269;SDS011;3168;51.684;6.954;2023-07-29T00:49:16;2.97;;;2.87;;
6269;SDS011;3168;51.684;6.954;2023-07-29T00:51:42;5.47;;;2.10;;
6269;SDS011;3168;51.684;6.954;2023-07-29T00:54:07;2.53;;;2.43;;
6269;SDS011;3168;51.684;6.954;2023-07-29T00:56:33;8.67;;;2.93;;
6269;SDS011;3168;51.684;6.954;2023-07-29T00:58:59;2.80;;;2.60;;
6269;SDS011;3168;51.684;6.954;2023-07-29T01:01:25;3.00;;;2.73;;
6269;SDS011;3168;51.684;6.954;2023-07-29T01:03:51;2.80;;;2.50;;
6269;SDS011;3168;51.684;6.954;2023-07-29T01:06:19;3.20;;;3.10;;
6269;SDS011;3168;51.684;6.954;2023-07-29T01:09:02;2.87;;;2.70;;
6269;SDS011;3168;51.684;6.954;2023-07-29T01:11:33;4.50;;;2.97;;
6269;SDS011;3168;51.684;6.954;2023-07-29T01:14:04;2.73;;;2.53;;
6269;SDS011;3168;51.684;6.954;2023-07-29T01:16:36;2.33;;;2.23;;
6269;SDS011;3168;51.684;6.954;2023-07-29T01:19:05;2.50;;;2.40;;
6269;SDS011;3168;51.684;6.954;2023-07-29T01:21:30;2.53;;;2.43;;
6269;SDS011;3168;51.684;6.954;2023-07-29T01:23:58;2.70;;;2.30;;
6269;SDS011;3168;51.684;6.954;2023-07-29T01:26:23;2.90;;;2.70;;
6269;SDS011;3168;51.684;6.954;2023-07-29T01:28:49;2.70;;;2.60;;
6269;SDS011;3168;51.684;6.954;2023-07-29T01:31:21;3.30;;;3.10;;
6269;SDS011;3168;51.684;6.954;2023-07-29T01:33:48;2.90;;;2.60;;
6269;SDS011;3168;51.684;6.954;2023-07-29T01:36:12;3.23;;;3.00;;
6269;SDS011;3168;51.684;6.954;2023-07-29T01:38:37;2.53;;;2.33;;
6269;SDS011;3168;51.684;6.954;2023-07-29T01:41:03;2.60;;;2.50;;
6269;SDS011;3168;51.684;6.954;2023-07-29T01:43:29;2.83;;;2.73;;
6269;SDS011;3168;51.684;6.954;2023-07-29T01:45:55;3.10;;;2.80;;
6269;SDS011;3168;51.684;6.954;2023-07-29T01:48:20;2.90;;;2.70;;
6269;SDS011;3168;51.684;6.954;2023-07-29T01:50:46;2.17;;;1.90;;
6269;SDS011;3168;51.684;6.954;2023-07-29T01:53:12;8.40;;;2.23;;
6269;SDS011;3168;51.684;6.954;2023-07-29T01:55:38;2.27;;;2.17;;
6269;SDS011;3168;51.684;6.954;2023-07-29T01:58:04;10.10;;;2.70;;
6269;SDS011;3168;51.684;6.954;2023-07-29T02:00:30;10.60;;;2.27;;
6269;SDS011;3168;51.684;6.954;2023-07-29T02:02:55;5.83;;;2.60;;
6269;SDS011;3168;51.684;6.954;2023-07-29T02:05:21;2.93;;;2.00;;
6269;SDS011;3168;51.684;6.954;2023-07-29T02:07:47;5.87;;;2.47;;
6269;SDS011;3168;51.684;6.954;2023-07-29T02:10:13;4.60;;;2.07;;
6269;SDS011;3168;51.684;6.954;2023-07-29T02:12:39;2.80;;;2.60;;
6269;SDS011;3168;51.684;6.954;2023-07-29T02:15:06;2.50;;;2.40;;
6269;SDS011;3168;51.684;6.954;2023-07-29T02:17:33;2.07;;;1.97;;
6269;SDS011;3168;51.684;6.954;2023-07-29T02:19:59;2.00;;;1.90;;
6269;SDS011;3168;51.684;6.954;2023-07-29T02:22:25;3.70;;;2.93;;
6269;SDS011;3168;51.684;6.954;2023-07-29T02:24:51;2.80;;;2.70;;
6269;SDS011;3168;51.684;6.954;2023-07-29T02:27:17;2.87;;;2.70;;
6269;SDS011;3168;51.684;6.954;2023-07-29T02:29:42;1.97;;;1.97;;
6269;SDS011;3168;51.684;6.954;2023-07-29T02:32:08;2.47;;;2.37;;
6269;SDS011;3168;51.684;6.954;2023-07-29T02:34:34;2.70;;;2.60;;
6269;SDS011;3168;51.684;6.954;2023-07-29T02:37:00;3.05;;;2.85;;
6269;SDS011;3168;51.684;6.954;2023-07-29T02:39:26;2.60;;;2.47;;
6269;SDS011;3168;51.684;6.954;2023-07-29T02:41:52;2.10;;;2.00;;
6269;SDS011;3168;51.684;6.954;2023-07-29T02:44:18;2.40;;;2.30;;
6269;SDS011;3168;51.684;6.954;2023-07-29T02:46:44;2.50;;;2.30;;
6269;SDS011;3168;51.684;6.954;2023-07-29T02:49:10;2.70;;;2.50;;
6269;SDS011;3168;51.684;6.954;2023-07-29T02:51:36;2.33;;;2.23;;
6269;SDS011;3168;51.684;6.954;2023-07-29T02:54:02;2.20;;;2.10;;
6269;SDS011;3168;51.684;6.954;2023-07-29T02:56:28;6.17;;;3.10;;
6269;SDS011;3168;51.684;6.954;2023-07-29T02:58:54;3.20;;;2.43;;
6269;SDS011;3168;51.684;6.954;2023-07-29T03:01:19;2.80;;;2.60;;
6269;SDS011;3168;51.684;6.954;2023-07-29T03:03:45;2.43;;;2.23;;
6269;SDS011;3168;51.684;6.954;2023-07-29T03:06:13;2.13;;;2.10;;
6269;SDS011;3168;51.684;6.954;2023-07-29T03:08:38;5.83;;;2.93;;
6269;SDS011;3168;51.684;6.954;2023-07-29T03:11:05;3.00;;;2.90;;
6269;SDS011;3168;51.684;6.954;2023-07-29T03:13:30;2.20;;;1.93;;
6269;SDS011;3168;51.684;6.954;2023-07-29T03:16:04;2.47;;;2.37;;
6269;SDS011;3168;51.684;6.954;2023-07-29T03:18:22;2.00;;;1.97;;
6269;SDS011;3168;51.684;6.954;2023-07-29T03:20:48;2.70;;;2.60;;
6269;SDS011;3168;51.684;6.954;2023-07-29T03:23:14;2.33;;;2.23;;
6269;SDS011;3168;51.684;6.954;2023-07-29T03:25:40;3.17;;;2.40;;
6269;SDS011;3168;51.684;6.954;2023-07-29T03:28:05;2.20;;;2.10;;
6269;SDS011;3168;51.684;6.954;2023-07-29T03:30:32;2.50;;;2.40;;
6269;SDS011;3168;51.684;6.954;2023-07-29T03:32:58;2.70;;;2.30;;
6269;SDS011;3168;51.684;6.954;2023-07-29T03:35:24;2.57;;;2.40;;
6269;SDS011;3168;51.684;6.954;2023-07-29T03:37:49;2.10;;;2.10;;
6269;SDS011;3168;51.684;6.954;2023-07-29T03:40:15;2.80;;;2.40;;
6269;SDS011;3168;51.684;6.954;2023-07-29T03:42:41;1.73;;;1.73;;
6269;SDS011;3168;51.684;6.954;2023-07-29T03:45:07;3.30;;;3.20;;
6269;SDS011;3168;51.684;6.954;2023-07-29T03:47:34;2.10;;;2.10;;
6269;SDS011;3168;51.684;6.954;2023-07-29T03:49:59;2.37;;;2.27;;
6269;SDS011;3168;51.684;6.954;2023-07-29T03:52:25;2.80;;;2.70;;
6269;SDS011;3168;51.684;6.954;2023-07-29T03:54:51;3.00;;;2.90;;
6269;SDS011;3168;51.684;6.954;2023-07-29T03:57:17;15.90;;;2.20;;
6269;SDS011;3168;51.684;6.954;2023-07-29T03:59:43;2.90;;;2.80;;
6269;SDS011;3168;51.684;6.954;2023-07-29T04:02:09;2.60;;;2.40;;
6269;SDS011;3168;51.684;6.954;2023-07-29T04:04:35;2.90;;;2.70;;
6269;SDS011;3168;51.684;6.954;2023-07-29T04:07:01;3.43;;;3.03;;
6269;SDS011;3168;51.684;6.954;2023-07-29T04:09:27;2.67;;;2.57;;
6269;SDS011;3168;51.684;6.954;2023-07-29T04:11:53;3.57;;;2.63;;
6269;SDS011;3168;51.684;6.954;2023-07-29T04:14:19;2.00;;;1.90;;
6269;SDS011;3168;51.684;6.954;2023-07-29T04:16:45;3.47;;;2.80;;
6269;SDS011;3168;51.684;6.954;2023-07-29T04:19:11;2.77;;;2.67;;
6269;SDS011;3168;51.684;6.954;2023-07-29T04:21:37;3.83;;;2.10;;
6269;SDS011;3168;51.684;6.954;2023-07-29T04:24:03;2.60;;;2.50;;
6269;SDS011;3168;51.684;6.954;2023-07-29T04:26:29;2.40;;;2.30;;
6269;SDS011;3168;51.684;6.954;2023-07-29T04:28:54;2.20;;;2.10;;
6269;SDS011;3168;51.684;6.954;2023-07-29T04:31:20;2.30;;;2.20;;
6269;SDS011;3168;51.684;6.954;2023-07-29T04:33:46;3.00;;;2.80;;
6269;SDS011;3168;51.684;6.954;2023-07-29T04:36:12;2.70;;;2.60;;
6269;SDS011;3168;51.684;6.954;2023-07-29T04:38:38;2.73;;;2.57;;
6269;SDS011;3168;51.684;6.954;2023-07-29T04:41:04;2.67;;;2.57;;
6269;SDS011;3168;51.684;6.954;2023-07-29T04:43:30;3.53;;;3.33;;
6269;SDS011;3168;51.684;6.954;2023-07-29T04:45:56;3.47;;;3.27;;
6269;SDS011;3168;51.684;6.954;2023-07-29T04:48:21;2.80;;;2.70;;
6269;SDS011;3168;51.684;6.954;2023-07-29T04:50:47;3.00;;;2.77;;
6269;SDS011;3168;51.684;6.954;2023-07-29T04:53:13;3.03;;;2.70;;
6269;SDS011;3168;51.684;6.954;2023-07-29T04:55:41;2.70;;;2.50;;
6269;SDS011;3168;51.684;6.954;2023-07-29T04:58:05;2.47;;;2.37;;
6269;SDS011;3168;51.684;6.954;2023-07-29T05:00:30;3.30;;;3.10;;
6269;SDS011;3168;51.684;6.954;2023-07-29T05:02:56;3.40;;;2.83;;
6269;SDS011;3168;51.684;6.954;2023-07-29T05:05:22;15.23;;;4.03;;
6269;SDS011;3168;51.684;6.954;2023-07-29T05:07:48;5.30;;;4.40;;
6269;SDS011;3168;51.684;6.954;2023-07-29T05:10:14;4.40;;;3.33;;
6269;SDS011;3168;51.684;6.954;2023-07-29T05:12:39;3.93;;;3.73;;
6269;SDS011;3168;51.684;6.954;2023-07-29T05:15:06;3.87;;;3.60;;
6269;SDS011;3168;51.684;6.954;2023-07-29T05:17:32;5.83;;;5.43;;
6269;SDS011;3168;51.684;6.954;2023-07-29T05:19:58;5.80;;;5.40;;
6269;SDS011;3168;51.684;6.954;2023-07-29T05:22:24;5.63;;;5.23;;
6269;SDS011;3168;51.684;6.954;2023-07-29T05:24:50;5.17;;;4.97;;
6269;SDS011;3168;51.684;6.954;2023-07-29T05:27:15;5.80;;;5.40;;
6269;SDS011;3168;51.684;6.954;2023-07-29T05:29:41;5.67;;;5.20;;
6269;SDS011;3168;51.684;6.954;2023-07-29T05:32:07;9.77;;;6.90;;
6269;SDS011;3168;51.684;6.954;2023-07-29T05:34:33;7.13;;;6.50;;
6269;SDS011;3168;51.684;6.954;2023-07-29T05:37:00;8.45;;;7.78;;
6269;SDS011;3168;51.684;6.954;2023-07-29T05:39:26;7.23;;;6.67;;
6269;SDS011;3168;51.684;6.954;2023-07-29T05:41:52;7.27;;;5.53;;
6269;SDS011;3168;51.684;6.954;2023-07-29T05:44:17;6.70;;;5.93;;
6269;SDS011;3168;51.684;6.954;2023-07-29T05:46:43;7.60;;;5.90;;
6269;SDS011;3168;51.684;6.954;2023-07-29T05:49:09;15.90;;;7.17;;
6269;SDS011;3168;51.684;6.954;2023-07-29T05:51:35;6.17;;;5.67;;
6269;SDS011;3168;51.684;6.954;2023-07-29T05:54:01;6.30;;;5.80;;
6269;SDS011;3168;51.684;6.954;2023-07-29T05:56:26;5.80;;;5.40;;
6269;SDS011;3168;51.684;6.954;2023-07-29T05:58:52;6.57;;;6.10;;
6269;SDS011;3168;51.684;6.954;2023-07-29T06:01:18;15.30;;;5.67;;
6269;SDS011;3168;51.684;6.954;2023-07-29T06:03:44;6.27;;;5.87;;
6269;SDS011;3168;51.684;6.954;2023-07-29T06:06:10;8.30;;;5.07;;
6269;SDS011;3168;51.684;6.954;2023-07-29T06:08:35;5.33;;;4.93;;
6269;SDS011;3168;51.684;6.954;2023-07-29T06:11:01;5.03;;;4.67;;
6269;SDS011;3168;51.684;6.954;2023-07-29T06:13:27;4.27;;;4.07;;
6269;SDS011;3168;51.684;6.954;2023-07-29T06:15:53;4.40;;;3.93;;
6269;SDS011;3168;51.684;6.954;2023-07-29T06:18:19;5.83;;;3.80;;
6269;SDS011;3168;51.684;6.954;2023-07-29T06:20:45;3.43;;;2.97;;
6269;SDS011;3168;51.684;6.954;2023-07-29T06:23:10;3.80;;;3.60;;
6269;SDS011;3168;51.684;6.954;2023-07-29T06:25:36;3.50;;;3.20;;
6269;SDS011;3168;51.684;6.954;2023-07-29T06:28:02;3.20;;;3.00;;
6269;SDS011;3168;51.684;6.954;2023-07-29T06:30:28;3.00;;;2.80;;
6269;SDS011;3168;51.684;6.954;2023-07-29T06:32:54;2.50;;;2.40;;
6269;SDS011;3168;51.684;6.954;2023-07-29T06:35:20;2.93;;;2.70;;
6269;SDS011;3168;51.684;6.954;2023-07-29T06:37:45;3.50;;;3.30;;
6269;SDS011;3168;51.684;6.954;2023-07-29T06:40:11;3.13;;;2.83;;
6269;SDS011;3168;51.684;6.954;2023-07-29T06:42:37;2.57;;;2.47;;
6269;SDS011;3168;51.684;6.954;2023-07-29T06:45:04;2.37;;;2.27;;
6269;SDS011;3168;51.684;6.954;2023-07-29T06:47:31;3.10;;;2.23;;
6269;SDS011;3168;51.684;6.954;2023-07-29T06:49:56;2.43;;;2.30;;
6269;SDS011;3168;51.684;6.954;2023-07-29T06:52:22;2.63;;;2.53;;
6269;SDS011;3168;51.684;6.954;2023-07-29T06:54:48;2.50;;;2.40;;
6269;SDS011;3168;51.684;6.954;2023-07-29T06:57:14;2.80;;;2.70;;
6269;SDS011;3168;51.684;6.954;2023-07-29T06:59:40;2.40;;;2.30;;
6269;SDS011;3168;51.684;6.954;2023-07-29T07:02:06;2.07;;;1.97;;
6269;SDS011;3168;51.684;6.954;2023-07-29T07:04:31;1.87;;;1.73;;
6269;SDS011;3168;51.684;6.954;2023-07-29T07:06:57;2.30;;;2.20;;
6269;SDS011;3168;51.684;6.954;2023-07-29T07:09:23;2.97;;;2.37;;
6269;SDS011;3168;51.684;6.954;2023-07-29T07:11:49;2.50;;;2.20;;
6269;SDS011;3168;51.684;6.954;2023-07-29T07:14:15;3.63;;;1.93;;
6269;SDS011;3168;51.684;6.954;2023-07-29T07:16:41;1.40;;;1.30;;
6269;SDS011;3168;51.684;6.954;2023-07-29T07:19:07;2.83;;;2.63;;
6269;SDS011;3168;51.684;6.954;2023-07-29T07:21:32;1.53;;;1.43;;
6269;SDS011;3168;51.684;6.954;2023-07-29T07:23:59;1.60;;;1.60;;
6269;SDS011;3168;51.684;6.954;2023-07-29T07:26:25;2.73;;;1.50;;
6269;SDS011;3168;51.684;6.954;2023-07-29T07:28:51;2.00;;;1.90;;
6269;SDS011;3168;51.684;6.954;2023-07-29T07:31:17;2.03;;;1.93;;
6269;SDS011;3168;51.684;6.954;2023-07-29T07:39:11;1.57;;;1.50;;
6269;SDS011;3168;51.684;6.954;2023-07-29T07:41:37;1.53;;;1.53;;
6269;SDS011;3168;51.684;6.954;2023-07-29T07:44:03;3.77;;;2.00;;
6269;SDS011;3168;51.684;6.954;2023-07-29T07:46:29;1.07;;;1.07;;
6269;SDS011;3168;51.684;6.954;2023-07-29T07:48:55;1.53;;;1.43;;
6269;SDS011;3168;51.684;6.954;2023-07-29T07:51:20;1.23;;;1.23;;
6269;SDS011;3168;51.684;6.954;2023-07-29T07:53:46;1.50;;;1.50;;
6269;SDS011;3168;51.684;6.954;2023-07-29T07:56:12;1.37;;;1.27;;
6269;SDS011;3168;51.684;6.954;2023-07-29T07:58:38;1.43;;;1.33;;
6269;SDS011;3168;51.684;6.954;2023-07-29T08:01:04;1.00;;;1.00;;
6269;SDS011;3168;51.684;6.954;2023-07-29T08:03:29;1.40;;;1.00;;
6269;SDS011;3168;51.684;6.954;2023-07-29T08:05:55;1.13;;;1.13;;
6269;SDS011;3168;51.684;6.954;2023-07-29T08:08:21;1.77;;;1.00;;
6269;SDS011;3168;51.684;6.954;2023-07-29T08:10:47;1.13;;;1.13;;
6269;SDS011;3168;51.684;6.954;2023-07-29T08:13:12;1.10;;;1.10;;
6269;SDS011;3168;51.684;6.954;2023-07-29T08:15:38;1.17;;;1.17;;
6269;SDS011;3168;51.684;6.954;2023-07-29T08:18:04;1.03;;;1.03;;
6269;SDS011;3168;51.684;6.954;2023-07-29T08:20:30;1.70;;;1.70;;
6269;SDS011;3168;51.684;6.954;2023-07-29T08:22:56;1.20;;;1.20;;
6269;SDS011;3168;51.684;6.954;2023-07-29T08:25:21;1.00;;;1.00;;
6269;SDS011;3168;51.684;6.954;2023-07-29T08:27:47;1.00;;;1.00;;
6269;SDS011;3168;51.684;6.954;2023-07-29T08:30:13;1.33;;;1.00;;
6269;SDS011;3168;51.684;6.954;2023-07-29T08:32:39;1.00;;;0.97;;
6269;SDS011;3168;51.684;6.954;2023-07-29T08:35:05;2.50;;;1.87;;
6269;SDS011;3168;51.684;6.954;2023-07-29T08:37:31;1.10;;;1.10;;
6269;SDS011;3168;51.684;6.954;2023-07-29T08:39:57;1.00;;;1.00;;
6269;SDS011;3168;51.684;6.954;2023-07-29T08:42:23;1.30;;;1.30;;
6269;SDS011;3168;51.684;6.954;2023-07-29T08:44:49;1.10;;;1.10;;
6269;SDS011;3168;51.684;6.954;2023-07-29T08:47:15;2.60;;;1.07;;
6269;SDS011;3168;51.684;6.954;2023-07-29T08:49:41;1.57;;;1.47;;
6269;SDS011;3168;51.684;6.954;2023-07-29T08:52:07;1.67;;;1.57;;
6269;SDS011;3168;51.684;6.954;2023-07-29T08:54:33;0.90;;;0.90;;
6269;SDS011;3168;51.684;6.954;2023-07-29T08:56:59;4.00;;;0.93;;
6269;SDS011;3168;51.684;6.954;2023-07-29T08:59:25;1.20;;;0.97;;
6269;SDS011;3168;51.684;6.954;2023-07-29T09:01:50;1.07;;;1.07;;
6269;SDS011;3168;51.684;6.954;2023-07-29T09:04:17;0.77;;;0.77;;
6269;SDS011;3168;51.684;6.954;2023-07-29T09:06:43;0.90;;;0.90;;
6269;SDS011;3168;51.684;6.954;2023-07-29T09:09:08;1.03;;;1.00;;
6269;SDS011;3168;51.684;6.954;2023-07-29T09:11:35;0.70;;;0.70;;
6269;SDS011;3168;51.684;6.954;2023-07-29T09:14:00;0.70;;;0.70;;
6269;SDS011;3168;51.684;6.954;2023-07-29T09:16:26;0.90;;;0.90;;
6269;SDS011;3168;51.684;6.954;2023-07-29T09:18:52;0.80;;;0.80;;
6269;SDS011;3168;51.684;6.954;2023-07-29T09:21:25;1.00;;;1.00;;
6269;SDS011;3168;51.684;6.954;2023-07-29T09:23:51;0.90;;;0.90;;
6269;SDS011;3168;51.684;6.954;2023-07-29T09:26:22;0.70;;;0.70;;
6269;SDS011;3168;51.684;6.954;2023-07-29T09:28:50;0.80;;;0.80;;
6269;SDS011;3168;51.684;6.954;2023-07-29T09:31:18;1.00;;;1.00;;
6269;SDS011;3168;51.684;6.954;2023-07-29T09:33:40;2.40;;;1.30;;
6269;SDS011;3168;51.684;6.954;2023-07-29T09:36:08;2.70;;;1.93;;
6269;SDS011;3168;51.684;6.954;2023-07-29T09:38:34;10.03;;;1.40;;
6269;SDS011;3168;51.684;6.954;2023-07-29T09:41:00;0.90;;;0.90;;
6269;SDS011;3168;51.684;6.954;2023-07-29T09:43:28;1.10;;;1.10;;
6269;SDS011;3168;51.684;6.954;2023-07-29T09:45:51;2.00;;;1.90;;
6269;SDS011;3168;51.684;6.954;2023-07-29T09:48:19;1.07;;;1.07;;
6269;SDS011;3168;51.684;6.954;2023-07-29T09:50:43;1.03;;;1.03;;
6269;SDS011;3168;51.684;6.954;2023-07-29T09:53:08;1.07;;;1.07;;
6269;SDS011;3168;51.684;6.954;2023-07-29T09:55:34;1.50;;;0.97;;
6269;SDS011;3168;51.684;6.954;2023-07-29T09:58:01;1.00;;;1.00;;
6269;SDS011;3168;51.684;6.954;2023-07-29T10:00:27;2.40;;;1.10;;
6269;SDS011;3168;51.684;6.954;2023-07-29T10:02:53;1.20;;;1.20;;
6269;SDS011;3168;51.684;6.954;2023-07-29T10:05:20;1.50;;;1.50;;
6269;SDS011;3168;51.684;6.954;2023-07-29T10:07:45;1.13;;;1.13;;
6269;SDS011;3168;51.684;6.954;2023-07-29T10:10:11;1.10;;;1.10;;
6269;SDS011;3168;51.684;6.954;2023-07-29T10:12:37;1.17;;;1.17;;
6269;SDS011;3168;51.684;6.954;2023-07-29T10:15:03;1.70;;;1.60;;
6269;SDS011;3168;51.684;6.954;2023-07-29T10:17:29;1.30;;;1.30;;
6269;SDS011;3168;51.684;6.954;2023-07-29T10:19:55;1.33;;;1.33;;
6269;SDS011;3168;51.684;6.954;2023-07-29T10:22:20;1.20;;;1.20;;
6269;SDS011;3168;51.684;6.954;2023-07-29T10:24:46;2.60;;;1.20;;
6269;SDS011;3168;51.684;6.954;2023-07-29T10:27:12;1.30;;;1.30;;
6269;SDS011;3168;51.684;6.954;2023-07-29T10:29:38;1.20;;;1.20;;
6269;SDS011;3168;51.684;6.954;2023-07-29T10:32:04;1.40;;;1.30;;
6269;SDS011;3168;51.684;6.954;2023-07-29T10:34:31;1.10;;;1.10;;
6269;SDS011;3168;51.684;6.954;2023-07-29T10:36:56;1.47;;;1.47;;
6269;SDS011;3168;51.684;6.954;2023-07-29T10:39:24;1.20;;;1.20;;
6269;SDS011;3168;51.684;6.954;2023-07-29T10:42:01;1.07;;;1.07;;
6269;SDS011;3168;51.684;6.954;2023-07-29T10:47:13;2.40;;;1.03;;
6269;SDS011;3168;51.684;6.954;2023-07-29T10:49:40;1.33;;;1.33;;
6269;SDS011;3168;51.684;6.954;2023-07-29T10:52:06;1.10;;;1.10;;
6269;SDS011;3168;51.684;6.954;2023-07-29T10:54:36;1.30;;;1.30;;
6269;SDS011;3168;51.684;6.954;2023-07-29T10:56:59;2.07;;;1.97;;
6269;SDS011;3168;51.684;6.954;2023-07-29T10:59:31;1.37;;;1.27;;
6269;SDS011;3168;51.684;6.954;2023-07-29T11:01:57;1.30;;;1.30;;
6269;SDS011;3168;51.684;6.954;2023-07-29T11:04:24;1.13;;;1.13;;
6269;SDS011;3168;51.684;6.954;2023-07-29T11:09:51;1.40;;;1.40;;
6269;SDS011;3168;51.684;6.954;2023-07-29T11:15:04;1.03;;;0.93;;
6269;SDS011;3168;51.684;6.954;2023-07-29T11:17:31;1.00;;;1.00;;
6269;SDS011;3168;51.684;6.954;2023-07-29T11:19:56;3.90;;;1.20;;
6269;SDS011;3168;51.684;6.954;2023-07-29T11:22:22;1.20;;;1.20;;
6269;SDS011;3168;51.684;6.954;2023-07-29T11:24:48;2.50;;;1.00;;
6269;SDS011;3168;51.684;6.954;2023-07-29T11:27:14;3.73;;;1.47;;
6269;SDS011;3168;51.684;6.954;2023-07-29T11:29:39;1.20;;;1.10;;
6269;SDS011;3168;51.684;6.954;2023-07-29T11:32:06;1.03;;;1.03;;
6269;SDS011;3168;51.684;6.954;2023-07-29T11:34:32;1.10;;;1.10;;
6269;SDS011;3168;51.684;6.954;2023-07-29T11:36:58;1.40;;;1.30;;
6269;SDS011;3168;51.684;6.954;2023-07-29T11:39:24;0.90;;;0.90;;
6269;SDS011;3168;51.684;6.954;2023-07-29T11:41:49;1.00;;;1.00;;
6269;SDS011;3168;51.684;6.954;2023-07-29T11:44:16;2.90;;;1.17;;
6269;SDS011;3168;51.684;6.954;2023-07-29T11:46:42;0.80;;;0.80;;
6269;SDS011;3168;51.684;6.954;2023-07-29T11:49:08;0.90;;;0.90;;
6269;SDS011;3168;51.684;6.954;2023-07-29T11:51:33;1.33;;;1.33;;
6269;SDS011;3168;51.684;6.954;2023-07-29T11:53:59;0.83;;;0.83;;
6269;SDS011;3168;51.684;6.954;2023-07-29T11:56:25;3.17;;;1.20;;
6269;SDS011;3168;51.684;6.954;2023-07-29T11:58:51;3.17;;;1.00;;
6269;SDS011;3168;51.684;6.954;2023-07-29T12:01:16;0.87;;;0.87;;
6269;SDS011;3168;51.684;6.954;2023-07-29T12:03:42;0.97;;;0.97;;
6269;SDS011;3168;51.684;6.954;2023-07-29T12:06:08;0.70;;;0.70;;
6269;SDS011;3168;51.684;6.954;2023-07-29T12:08:34;1.27;;;1.00;;
6269;SDS011;3168;51.684;6.954;2023-07-29T12:10:59;0.80;;;0.80;;
6269;SDS011;3168;51.684;6.954;2023-07-29T12:13:25;1.40;;;1.30;;
6269;SDS011;3168;51.684;6.954;2023-07-29T12:15:52;1.13;;;1.13;;
6269;SDS011;3168;51.684;6.954;2023-07-29T12:18:18;0.83;;;0.83;;
6269;SDS011;3168;51.684;6.954;2023-07-29T12:20:43;1.90;;;1.20;;
6269;SDS011;3168;51.684;6.954;2023-07-29T12:23:09;1.10;;;1.10;;
6269;SDS011;3168;51.684;6.954;2023-07-29T12:25:35;0.83;;;0.83;;
6269;SDS011;3168;51.684;6.954;2023-07-29T12:28:03;1.10;;;1.10;;
6269;SDS011;3168;51.684;6.954;2023-07-29T12:30:29;1.03;;;1.03;;
6269;SDS011;3168;51.684;6.954;2023-07-29T12:32:54;1.20;;;1.20;;
6269;SDS011;3168;51.684;6.954;2023-07-29T12:35:20;1.10;;;1.10;;
6269;SDS011;3168;51.684;6.954;2023-07-29T12:37:46;1.20;;;1.20;;
6269;SDS011;3168;51.684;6.954;2023-07-29T12:42:47;1.13;;;1.13;;
6269;SDS011;3168;51.684;6.954;2023-07-29T12:45:14;1.10;;;1.10;;
6269;SDS011;3168;51.684;6.954;2023-07-29T12:47:38;1.40;;;1.40;;
6269;SDS011;3168;51.684;6.954;2023-07-29T12:50:04;1.47;;;1.37;;
6269;SDS011;3168;51.684;6.954;2023-07-29T12:52:31;1.70;;;1.70;;
6269;SDS011;3168;51.684;6.954;2023-07-29T12:54:57;1.40;;;1.40;;
6269;SDS011;3168;51.684;6.954;2023-07-29T12:57:23;1.00;;;1.00;;
6269;SDS011;3168;51.684;6.954;2023-07-29T12:59:49;0.93;;;0.80;;
6269;SDS011;3168;51.684;6.954;2023-07-29T13:02:14;1.40;;;1.40;;
6269;SDS011;3168;51.684;6.954;2023-07-29T13:04:40;0.97;;;0.97;;
6269;SDS011;3168;51.684;6.954;2023-07-29T13:07:06;0.83;;;0.83;;
6269;SDS011;3168;51.684;6.954;2023-07-29T13:09:32;0.97;;;0.97;;
6269;SDS011;3168;51.684;6.954;2023-07-29T13:11:57;1.33;;;1.33;;
6269;SDS011;3168;51.684;6.954;2023-07-29T13:14:23;1.10;;;1.10;;
6269;SDS011;3168;51.684;6.954;2023-07-29T13:16:49;1.20;;;1.20;;
6269;SDS011;3168;51.684;6.954;2023-07-29T13:19:15;4.37;;;1.37;;
6269;SDS011;3168;51.684;6.954;2023-07-29T13:21:41;1.93;;;1.20;;
6269;SDS011;3168;51.684;6.954;2023-07-29T13:24:06;3.77;;;1.33;;
6269;SDS011;3168;51.684;6.954;2023-07-29T13:26:32;1.07;;;1.07;;
6269;SDS011;3168;51.684;6.954;2023-07-29T13:28:58;1.10;;;1.10;;
6269;SDS011;3168;51.684;6.954;2023-07-29T13:31:24;1.03;;;1.03;;
6269;SDS011;3168;51.684;6.954;2023-07-29T13:33:50;1.27;;;1.27;;
6269;SDS011;3168;51.684;6.954;2023-07-29T13:36:15;1.33;;;1.23;;
6269;SDS011;3168;51.684;6.954;2023-07-29T13:38:41;1.13;;;1.13;;
6269;SDS011;3168;51.684;6.954;2023-07-29T13:41:07;1.67;;;1.45;;
6269;SDS011;3168;51.684;6.954;2023-07-29T13:43:33;11.10;;;1.33;;
6269;SDS011;3168;51.684;6.954;2023-07-29T13:45:58;1.60;;;1.50;;
6269;SDS011;3168;51.684;6.954;2023-07-29T13:48:24;1.77;;;1.37;;
6269;SDS011;3168;51.684;6.954;2023-07-29T13:50:50;2.20;;;2.10;;
6269;SDS011;3168;51.684;6.954;2023-07-29T13:53:16;2.60;;;2.03;;
6269;SDS011;3168;51.684;6.954;2023-07-29T13:55:41;1.10;;;1.10;;
6269;SDS011;3168;51.684;6.954;2023-07-29T13:58:07;1.60;;;1.50;;
6269;SDS011;3168;51.684;6.954;2023-07-29T14:00:33;1.30;;;1.30;;
6269;SDS011;3168;51.684;6.954;2023-07-29T14:02:59;2.27;;;2.13;;
6269;SDS011;3168;51.684;6.954;2023-07-29T14:05:25;1.30;;;1.30;;
6269;SDS011;3168;51.684;6.954;2023-07-29T14:07:50;1.10;;;1.10;;
6269;SDS011;3168;51.684;6.954;2023-07-29T14:10:16;1.67;;;1.57;;
6269;SDS011;3168;51.684;6.954;2023-07-29T14:12:42;1.30;;;1.30;;
6269;SDS011;3168;51.684;6.954;2023-07-29T14:15:08;1.30;;;1.30;;
6269;SDS011;3168;51.684;6.954;2023-07-29T14:17:34;1.13;;;1.13;;
6269;SDS011;3168;51.684;6.954;2023-07-29T14:20:00;2.70;;;1.03;;
6269;SDS011;3168;51.684;6.954;2023-07-29T14:22:25;0.93;;;0.93;;
6269;SDS011;3168;51.684;6.954;2023-07-29T14:24:51;1.57;;;1.50;;
6269;SDS011;3168;51.684;6.954;2023-07-29T14:27:17;1.53;;;1.50;;
6269;SDS011;3168;51.684;6.954;2023-07-29T14:29:43;5.60;;;1.73;;
6269;SDS011;3168;51.684;6.954;2023-07-29T14:32:09;3.23;;;1.60;;
6269;SDS011;3168;51.684;6.954;2023-07-29T14:34:35;1.77;;;1.40;;
6269;SDS011;3168;51.684;6.954;2023-07-29T14:37:01;1.13;;;1.03;;
6269;SDS011;3168;51.684;6.954;2023-07-29T14:39:27;1.63;;;1.63;;
6269;SDS011;3168;51.684;6.954;2023-07-29T14:41:53;2.00;;;1.90;;
6269;SDS011;3168;51.684;6.954;2023-07-29T14:44:19;1.47;;;1.17;;
6269;SDS011;3168;51.684;6.954;2023-07-29T14:46:45;1.20;;;1.20;;
6269;SDS011;3168;51.684;6.954;2023-07-29T14:49:10;1.77;;;1.67;;
6269;SDS011;3168;51.684;6.954;2023-07-29T14:51:36;1.67;;;0.97;;
6269;SDS011;3168;51.684;6.954;2023-07-29T14:54:02;1.50;;;1.50;;
6269;SDS011;3168;51.684;6.954;2023-07-29T14:56:28;3.13;;;0.97;;
6269;SDS011;3168;51.684;6.954;2023-07-29T14:58:54;0.97;;;0.97;;
6269;SDS011;3168;51.684;6.954;2023-07-29T15:01:19;1.30;;;1.30;;
6269;SDS011;3168;51.684;6.954;2023-07-29T15:03:45;1.20;;;1.20;;
6269;SDS011;3168;51.684;6.954;2023-07-29T15:06:11;1.07;;;0.93;;
6269;SDS011;3168;51.684;6.954;2023-07-29T15:08:37;3.27;;;1.00;;
6269;SDS011;3168;51.684;6.954;2023-07-29T15:11:03;0.70;;;0.70;;
6269;SDS011;3168;51.684;6.954;2023-07-29T15:13:28;1.00;;;1.00;;
6269;SDS011;3168;51.684;6.954;2023-07-29T15:15:54;0.87;;;0.87;;
6269;SDS011;3168;51.684;6.954;2023-07-29T15:18:20;0.80;;;0.80;;
6269;SDS011;3168;51.684;6.954;2023-07-29T15:20:46;0.80;;;0.80;;
6269;SDS011;3168;51.684;6.954;2023-07-29T15:23:12;0.80;;;0.80;;